Minneapolis, Minnesota
Traffic Map
Current Weather Conditions
Minneapolis, Minnesota
Overcast Light Snow
Overcast
32°
Feels Like: 23°
Wind Chill: 23° Ceiling: 1300
Heat Index: 32° Visibility: 3mi
Dew Point: 29° Wind: 13mph
Humidity: 88% Direction: 330° (NNW)
Pressure: 29.54in Gusts: 20mph
Raw Report DataKMSP 271307Z 33011G17KT 3SM R30L/4500VP6000FT -SN BR FEW007 BKN013 OVC017 00/M02 A2954 RMK AO2 P0001 T00001017
Traffic Incident Summary
Active as of:
Severity:
Category:
InformationThere was an issue retrieving the traffic information for this location. Please try a different location or try again shortly.
Advertisements
Track Severe Weather on mobile